This is the latest recevied weather packets stored in our database for station/object N9XTN-3. If no packets are shown the sender has not sent any weather packets the latest 10 day(s).
| Time | Temp. | Humidity | Pressure | Rain* | Wind** | Luminosity | Snow |
|---|---|---|---|---|---|---|---|
| 1777408516 | 10° C | 66% | 1018.1 hPa | 0 mm | - | - | - |
| 1777408216 | 10° C | 66% | 1018.2 hPa | 0 mm | - | - | - |
| 1777406416 | 10° C | 65% | 1018.2 hPa | 0 mm | - | - | - |
| 1777400116 | 9.44° C | 64% | 1018.1 hPa | 0 mm | - | - | - |
| 1777399516 | 10° C | 65% | 1018.2 hPa | 0 mm | - | - | - |
| 1777398016 | 10° C | 66% | 1018.4 hPa | 0 mm | - | - | - |
| 1777396516 | 10° C | 67% | 1018.1 hPa | 0 mm | - | - | - |
| 1777396216 | 10° C | 65% | 1018.2 hPa | 0 mm | - | - | - |
| 1777395916 | 10° C | 65% | 1018 hPa | 0 mm | - | - | - |
| 1777394116 | 10° C | 66% | 1018.2 hPa | 0 mm | - | - | - |
| 1777392316 | 10° C | 66% | 1019.1 hPa | 0 mm | - | - | - |
| 1777392016 | 10° C | 68% | 1019.1 hPa | 0 mm | - | - | - |
| 1777391156 | 10° C | 67% | 1019 hPa | 0 mm | - | - | - |
| 1777390516 | 9.44° C | 68% | 1018.9 hPa | 0 mm | - | - | - |
| 1777389616 | 9.44° C | 69% | 1018.9 hPa | 0 mm | - | - | - |
| 1777387836 | 8.89° C | 75% | 1019.2 hPa | 0 mm | - | - | - |
| 1777386016 | 7.78° C | 80% | 1018 hPa | 0 mm | - | - | - |
| 1777383916 | 6.67° C | 88% | 1017.9 hPa | 0 mm | - | - | - |
| 1777381517 | 5.56° C | 88% | 1018.6 hPa | 0 mm | - | - | - |
| 1777381216 | 5.56° C | 88% | 1018.6 hPa | 0 mm | - | - | - |
| 1777379716 | 5.56° C | 89% | 1018.2 hPa | 0 mm | - | - | - |
| 1777378216 | 5.56° C | 90% | 1016.7 hPa | 0 mm | - | - | - |
| 1777376116 | 5° C | 91% | 1015.4 hPa | 0 mm | - | - | - |
| 1777374316 | 5° C | 90% | 1016.1 hPa | 0 mm | - | - | - |
| 1777370737 | 5° C | 90% | 1016.5 hPa | 0 mm | - | - | - |
* Rain latest hour (hover to see other rain measurements)
** Current wind speed in m/s (hover to see current wind gust speed)